sensor_id;sensor_type;location;lat;lon;timestamp;P1;durP1;ratioP1;P2;durP2;ratioP2
29314;SDS011;16320;53.954;9.506;2022-12-07T00:00:49;87.63;;;27.75;;
29314;SDS011;16320;53.954;9.506;2022-12-07T00:03:54;86.75;;;26.77;;
29314;SDS011;16320;53.954;9.506;2022-12-07T00:07:04;78.03;;;25.08;;
29314;SDS011;16320;53.954;9.506;2022-12-07T00:10:08;76.63;;;24.58;;
29314;SDS011;16320;53.954;9.506;2022-12-07T00:13:13;79.80;;;25.92;;
29314;SDS011;16320;53.954;9.506;2022-12-07T00:16:18;71.18;;;23.55;;
29314;SDS011;16320;53.954;9.506;2022-12-07T00:19:24;66.22;;;22.27;;
29314;SDS011;16320;53.954;9.506;2022-12-07T00:22:29;45.70;;;18.45;;
29314;SDS011;16320;53.954;9.506;2022-12-07T00:25:33;63.75;;;19.55;;
29314;SDS011;16320;53.954;9.506;2022-12-07T00:28:40;47.30;;;16.77;;
29314;SDS011;16320;53.954;9.506;2022-12-07T00:31:45;49.95;;;17.10;;
29314;SDS011;16320;53.954;9.506;2022-12-07T00:34:50;48.00;;;16.75;;
29314;SDS011;16320;53.954;9.506;2022-12-07T00:37:54;43.20;;;16.42;;
29314;SDS011;16320;53.954;9.506;2022-12-07T00:41:00;43.50;;;14.82;;
29314;SDS011;16320;53.954;9.506;2022-12-07T00:44:07;36.47;;;13.10;;
29314;SDS011;16320;53.954;9.506;2022-12-07T00:47:12;34.55;;;13.23;;
29314;SDS011;16320;53.954;9.506;2022-12-07T00:50:16;35.92;;;11.45;;
29314;SDS011;16320;53.954;9.506;2022-12-07T00:53:20;33.80;;;10.63;;
29314;SDS011;16320;53.954;9.506;2022-12-07T00:56:26;24.52;;;8.50;;
29314;SDS011;16320;53.954;9.506;2022-12-07T00:59:32;27.02;;;7.97;;
29314;SDS011;16320;53.954;9.506;2022-12-07T01:02:37;18.40;;;6.85;;
29314;SDS011;16320;53.954;9.506;2022-12-07T01:05:52;16.80;;;5.35;;
29314;SDS011;16320;53.954;9.506;2022-12-07T01:08:58;18.95;;;5.78;;
29314;SDS011;16320;53.954;9.506;2022-12-07T01:12:04;19.10;;;6.53;;
29314;SDS011;16320;53.954;9.506;2022-12-07T01:15:09;12.80;;;3.97;;
29314;SDS011;16320;53.954;9.506;2022-12-07T01:18:14;19.80;;;4.13;;
29314;SDS011;16320;53.954;9.506;2022-12-07T01:21:20;20.90;;;5.07;;
29314;SDS011;16320;53.954;9.506;2022-12-07T01:24:28;13.10;;;3.75;;
29314;SDS011;16320;53.954;9.506;2022-12-07T01:27:33;12.65;;;4.32;;
29314;SDS011;16320;53.954;9.506;2022-12-07T01:30:38;12.85;;;4.60;;
29314;SDS011;16320;53.954;9.506;2022-12-07T01:33:52;15.38;;;6.13;;
29314;SDS011;16320;53.954;9.506;2022-12-07T01:36:59;8.32;;;3.28;;
29314;SDS011;16320;53.954;9.506;2022-12-07T01:40:05;10.18;;;2.55;;
29314;SDS011;16320;53.954;9.506;2022-12-07T01:43:14;9.25;;;2.63;;
29314;SDS011;16320;53.954;9.506;2022-12-07T01:46:22;7.18;;;2.25;;
29314;SDS011;16320;53.954;9.506;2022-12-07T01:52:34;12.60;;;2.35;;
29314;SDS011;16320;53.954;9.506;2022-12-07T01:55:42;8.75;;;2.50;;
29314;SDS011;16320;53.954;9.506;2022-12-07T01:58:51;12.15;;;2.38;;
29314;SDS011;16320;53.954;9.506;2022-12-07T02:01:58;10.73;;;2.50;;
29314;SDS011;16320;53.954;9.506;2022-12-07T02:05:06;6.18;;;2.60;;
29314;SDS011;16320;53.954;9.506;2022-12-07T02:08:11;8.15;;;2.60;;
29314;SDS011;16320;53.954;9.506;2022-12-07T02:11:17;11.73;;;2.83;;
29314;SDS011;16320;53.954;9.506;2022-12-07T02:14:22;8.23;;;2.60;;
29314;SDS011;16320;53.954;9.506;2022-12-07T02:17:32;6.90;;;2.78;;
29314;SDS011;16320;53.954;9.506;2022-12-07T02:24:47;13.23;;;3.53;;
29314;SDS011;16320;53.954;9.506;2022-12-07T02:28:35;11.77;;;3.88;;
29314;SDS011;16320;53.954;9.506;2022-12-07T02:32:08;11.30;;;4.53;;
29314;SDS011;16320;53.954;9.506;2022-12-07T02:35:48;11.27;;;4.15;;
29314;SDS011;16320;53.954;9.506;2022-12-07T02:42:19;18.10;;;6.03;;
29314;SDS011;16320;53.954;9.506;2022-12-07T02:48:38;19.35;;;5.85;;
29314;SDS011;16320;53.954;9.506;2022-12-07T02:51:45;30.40;;;6.95;;
29314;SDS011;16320;53.954;9.506;2022-12-07T02:54:50;16.60;;;6.63;;
29314;SDS011;16320;53.954;9.506;2022-12-07T03:04:49;24.05;;;7.28;;
29314;SDS011;16320;53.954;9.506;2022-12-07T03:11:39;25.95;;;7.18;;
29314;SDS011;16320;53.954;9.506;2022-12-07T03:15:07;22.60;;;8.25;;
29314;SDS011;16320;53.954;9.506;2022-12-07T03:18:29;31.48;;;9.00;;
29314;SDS011;16320;53.954;9.506;2022-12-07T03:21:42;29.40;;;8.48;;
29314;SDS011;16320;53.954;9.506;2022-12-07T03:25:01;33.25;;;9.05;;
29314;SDS011;16320;53.954;9.506;2022-12-07T03:28:13;28.60;;;8.90;;
29314;SDS011;16320;53.954;9.506;2022-12-07T03:31:28;22.58;;;8.77;;
29314;SDS011;16320;53.954;9.506;2022-12-07T03:34:43;27.73;;;8.40;;
29314;SDS011;16320;53.954;9.506;2022-12-07T03:41:17;30.38;;;9.18;;
29314;SDS011;16320;53.954;9.506;2022-12-07T03:44:30;34.10;;;9.20;;
29314;SDS011;16320;53.954;9.506;2022-12-07T03:51:28;25.80;;;9.20;;
29314;SDS011;16320;53.954;9.506;2022-12-07T03:55:15;27.85;;;9.88;;
29314;SDS011;16320;53.954;9.506;2022-12-07T03:58:24;22.52;;;8.75;;
29314;SDS011;16320;53.954;9.506;2022-12-07T04:01:29;30.15;;;9.63;;
29314;SDS011;16320;53.954;9.506;2022-12-07T04:04:36;30.25;;;8.75;;
29314;SDS011;16320;53.954;9.506;2022-12-07T04:07:41;35.42;;;8.93;;
29314;SDS011;16320;53.954;9.506;2022-12-07T04:10:46;29.40;;;8.85;;
29314;SDS011;16320;53.954;9.506;2022-12-07T04:13:50;27.60;;;9.00;;
29314;SDS011;16320;53.954;9.506;2022-12-07T04:17:13;34.10;;;10.38;;
29314;SDS011;16320;53.954;9.506;2022-12-07T04:20:17;28.88;;;11.10;;
29314;SDS011;16320;53.954;9.506;2022-12-07T04:23:22;36.35;;;11.15;;
29314;SDS011;16320;53.954;9.506;2022-12-07T04:26:27;32.33;;;11.68;;
29314;SDS011;16320;53.954;9.506;2022-12-07T04:29:32;28.20;;;12.00;;
29314;SDS011;16320;53.954;9.506;2022-12-07T04:32:36;31.83;;;12.38;;
29314;SDS011;16320;53.954;9.506;2022-12-07T04:35:42;30.73;;;11.63;;
29314;SDS011;16320;53.954;9.506;2022-12-07T04:38:46;31.63;;;11.77;;
29314;SDS011;16320;53.954;9.506;2022-12-07T04:41:51;26.90;;;11.13;;
29314;SDS011;16320;53.954;9.506;2022-12-07T04:44:57;27.90;;;10.35;;
29314;SDS011;16320;53.954;9.506;2022-12-07T04:48:02;32.28;;;11.45;;
29314;SDS011;16320;53.954;9.506;2022-12-07T04:51:07;35.53;;;11.85;;
29314;SDS011;16320;53.954;9.506;2022-12-07T04:54:11;26.73;;;11.30;;
29314;SDS011;16320;53.954;9.506;2022-12-07T04:57:18;28.33;;;10.98;;
29314;SDS011;16320;53.954;9.506;2022-12-07T05:00:22;31.83;;;11.13;;
29314;SDS011;16320;53.954;9.506;2022-12-07T05:03:27;33.55;;;12.40;;
29314;SDS011;16320;53.954;9.506;2022-12-07T05:06:31;31.23;;;9.82;;
29314;SDS011;16320;53.954;9.506;2022-12-07T05:09:36;35.60;;;10.98;;
29314;SDS011;16320;53.954;9.506;2022-12-07T05:12:40;35.20;;;11.20;;
29314;SDS011;16320;53.954;9.506;2022-12-07T05:15:46;28.50;;;11.13;;
29314;SDS011;16320;53.954;9.506;2022-12-07T05:18:52;34.75;;;11.55;;
29314;SDS011;16320;53.954;9.506;2022-12-07T05:21:56;27.40;;;9.77;;
29314;SDS011;16320;53.954;9.506;2022-12-07T05:25:01;28.60;;;9.93;;
29314;SDS011;16320;53.954;9.506;2022-12-07T05:28:06;28.25;;;9.48;;
29314;SDS011;16320;53.954;9.506;2022-12-07T05:31:10;26.58;;;9.50;;
29314;SDS011;16320;53.954;9.506;2022-12-07T05:34:15;27.00;;;9.90;;
29314;SDS011;16320;53.954;9.506;2022-12-07T05:37:19;20.48;;;8.77;;
29314;SDS011;16320;53.954;9.506;2022-12-07T05:40:24;28.90;;;9.05;;
29314;SDS011;16320;53.954;9.506;2022-12-07T05:43:29;16.60;;;8.20;;
29314;SDS011;16320;53.954;9.506;2022-12-07T05:46:34;19.52;;;9.30;;
29314;SDS011;16320;53.954;9.506;2022-12-07T05:49:44;18.80;;;8.18;;
29314;SDS011;16320;53.954;9.506;2022-12-07T05:52:49;25.63;;;9.45;;
29314;SDS011;16320;53.954;9.506;2022-12-07T05:55:54;19.88;;;7.90;;
29314;SDS011;16320;53.954;9.506;2022-12-07T05:59:02;19.45;;;7.68;;
29314;SDS011;16320;53.954;9.506;2022-12-07T06:02:27;22.73;;;8.40;;
29314;SDS011;16320;53.954;9.506;2022-12-07T06:05:31;18.63;;;8.55;;
29314;SDS011;16320;53.954;9.506;2022-12-07T06:08:37;20.55;;;7.90;;
29314;SDS011;16320;53.954;9.506;2022-12-07T06:11:42;18.38;;;8.40;;
29314;SDS011;16320;53.954;9.506;2022-12-07T06:15:06;16.50;;;6.25;;
29314;SDS011;16320;53.954;9.506;2022-12-07T06:18:12;25.13;;;7.55;;
29314;SDS011;16320;53.954;9.506;2022-12-07T07:30:25;11.00;;;4.43;;
29314;SDS011;16320;53.954;9.506;2022-12-07T09:37:40;14.27;;;2.35;;
29314;SDS011;16320;53.954;9.506;2022-12-07T09:41:51;9.50;;;1.73;;
29314;SDS011;16320;53.954;9.506;2022-12-07T09:45:24;15.80;;;2.00;;
29314;SDS011;16320;53.954;9.506;2022-12-07T09:49:04;11.10;;;2.08;;
29314;SDS011;16320;53.954;9.506;2022-12-07T09:52:52;18.98;;;2.70;;
29314;SDS011;16320;53.954;9.506;2022-12-07T10:00:16;16.33;;;1.88;;
29314;SDS011;16320;53.954;9.506;2022-12-07T10:03:51;19.05;;;1.55;;
29314;SDS011;16320;53.954;9.506;2022-12-07T10:07:58;16.40;;;2.25;;
29314;SDS011;16320;53.954;9.506;2022-12-07T10:11:30;17.00;;;2.85;;
29314;SDS011;16320;53.954;9.506;2022-12-07T10:15:11;20.08;;;2.75;;
29314;SDS011;16320;53.954;9.506;2022-12-07T10:22:13;21.08;;;5.15;;
29314;SDS011;16320;53.954;9.506;2022-12-07T10:25:56;16.52;;;2.80;;
29314;SDS011;16320;53.954;9.506;2022-12-07T10:30:12;22.67;;;9.00;;
29314;SDS011;16320;53.954;9.506;2022-12-07T10:33:56;11.60;;;2.53;;
29314;SDS011;16320;53.954;9.506;2022-12-07T10:37:27;8.88;;;2.50;;
29314;SDS011;16320;53.954;9.506;2022-12-07T11:10:22;9.57;;;1.20;;
29314;SDS011;16320;53.954;9.506;2022-12-07T17:20:48;56.38;;;23.77;;
29314;SDS011;16320;53.954;9.506;2022-12-07T17:24:00;64.57;;;24.83;;
29314;SDS011;16320;53.954;9.506;2022-12-07T17:27:08;28.85;;;13.95;;
29314;SDS011;16320;53.954;9.506;2022-12-07T17:30:13;29.13;;;12.05;;
29314;SDS011;16320;53.954;9.506;2022-12-07T17:33:18;25.02;;;12.65;;
29314;SDS011;16320;53.954;9.506;2022-12-07T17:36:26;15.02;;;7.45;;
29314;SDS011;16320;53.954;9.506;2022-12-07T17:39:33;15.88;;;8.25;;
29314;SDS011;16320;53.954;9.506;2022-12-07T17:42:38;17.63;;;9.68;;
29314;SDS011;16320;53.954;9.506;2022-12-07T17:45:44;18.77;;;9.73;;
29314;SDS011;16320;53.954;9.506;2022-12-07T17:48:50;36.92;;;18.13;;
29314;SDS011;16320;53.954;9.506;2022-12-07T17:51:58;38.95;;;19.45;;
29314;SDS011;16320;53.954;9.506;2022-12-07T17:55:24;17.90;;;8.05;;
29314;SDS011;16320;53.954;9.506;2022-12-07T17:58:29;22.83;;;10.55;;
29314;SDS011;16320;53.954;9.506;2022-12-07T18:01:35;41.00;;;20.60;;
29314;SDS011;16320;53.954;9.506;2022-12-07T18:04:40;37.50;;;19.02;;
29314;SDS011;16320;53.954;9.506;2022-12-07T18:07:46;43.22;;;21.00;;
29314;SDS011;16320;53.954;9.506;2022-12-07T18:10:58;24.98;;;11.27;;
29314;SDS011;16320;53.954;9.506;2022-12-07T18:14:04;33.33;;;12.70;;
29314;SDS011;16320;53.954;9.506;2022-12-07T18:17:09;33.10;;;15.30;;
29314;SDS011;16320;53.954;9.506;2022-12-07T18:20:14;30.10;;;13.40;;
29314;SDS011;16320;53.954;9.506;2022-12-07T18:23:18;25.00;;;13.55;;
29314;SDS011;16320;53.954;9.506;2022-12-07T18:26:24;20.45;;;11.00;;
29314;SDS011;16320;53.954;9.506;2022-12-07T18:29:29;20.65;;;9.95;;
29314;SDS011;16320;53.954;9.506;2022-12-07T18:32:33;20.65;;;13.18;;
29314;SDS011;16320;53.954;9.506;2022-12-07T18:35:38;24.40;;;10.75;;
29314;SDS011;16320;53.954;9.506;2022-12-07T18:38:42;19.05;;;10.27;;
29314;SDS011;16320;53.954;9.506;2022-12-07T18:41:47;17.73;;;10.82;;
29314;SDS011;16320;53.954;9.506;2022-12-07T18:44:51;24.85;;;14.77;;
29314;SDS011;16320;53.954;9.506;2022-12-07T18:47:57;23.02;;;14.77;;
29314;SDS011;16320;53.954;9.506;2022-12-07T18:51:03;22.58;;;13.25;;
29314;SDS011;16320;53.954;9.506;2022-12-07T18:54:09;25.58;;;9.90;;
29314;SDS011;16320;53.954;9.506;2022-12-07T18:57:14;18.92;;;10.63;;
29314;SDS011;16320;53.954;9.506;2022-12-07T19:00:18;12.60;;;7.35;;
29314;SDS011;16320;53.954;9.506;2022-12-07T19:03:23;12.48;;;7.47;;
29314;SDS011;16320;53.954;9.506;2022-12-07T19:06:36;13.70;;;6.50;;
29314;SDS011;16320;53.954;9.506;2022-12-07T19:09:41;10.35;;;5.93;;
29314;SDS011;16320;53.954;9.506;2022-12-07T19:12:45;8.75;;;6.35;;
29314;SDS011;16320;53.954;9.506;2022-12-07T19:15:52;12.52;;;6.75;;
29314;SDS011;16320;53.954;9.506;2022-12-07T19:18:56;20.30;;;8.60;;
29314;SDS011;16320;53.954;9.506;2022-12-07T19:22:01;15.07;;;7.38;;
29314;SDS011;16320;53.954;9.506;2022-12-07T19:25:07;26.55;;;9.10;;
29314;SDS011;16320;53.954;9.506;2022-12-07T19:28:12;22.15;;;10.30;;
29314;SDS011;16320;53.954;9.506;2022-12-07T19:31:16;19.52;;;8.52;;
29314;SDS011;16320;53.954;9.506;2022-12-07T19:34:21;19.25;;;7.78;;
29314;SDS011;16320;53.954;9.506;2022-12-07T19:37:26;18.80;;;7.70;;
29314;SDS011;16320;53.954;9.506;2022-12-07T19:40:33;25.38;;;8.13;;
29314;SDS011;16320;53.954;9.506;2022-12-07T19:43:41;19.30;;;8.50;;
29314;SDS011;16320;53.954;9.506;2022-12-07T19:46:47;16.30;;;6.10;;
29314;SDS011;16320;53.954;9.506;2022-12-07T19:49:54;9.93;;;4.70;;
29314;SDS011;16320;53.954;9.506;2022-12-07T19:52:58;12.52;;;6.90;;
29314;SDS011;16320;53.954;9.506;2022-12-07T19:56:04;34.88;;;14.73;;
29314;SDS011;16320;53.954;9.506;2022-12-07T19:59:09;24.50;;;7.57;;
29314;SDS011;16320;53.954;9.506;2022-12-07T20:02:15;9.38;;;4.85;;
29314;SDS011;16320;53.954;9.506;2022-12-07T20:05:20;10.38;;;4.95;;
29314;SDS011;16320;53.954;9.506;2022-12-07T20:08:29;13.05;;;7.10;;
29314;SDS011;16320;53.954;9.506;2022-12-07T20:11:34;20.60;;;10.07;;
29314;SDS011;16320;53.954;9.506;2022-12-07T20:15:07;22.25;;;9.48;;
29314;SDS011;16320;53.954;9.506;2022-12-07T20:18:13;27.05;;;16.90;;
29314;SDS011;16320;53.954;9.506;2022-12-07T20:21:17;27.50;;;12.98;;
29314;SDS011;16320;53.954;9.506;2022-12-07T20:24:22;19.27;;;10.80;;
29314;SDS011;16320;53.954;9.506;2022-12-07T20:27:28;16.45;;;8.50;;
29314;SDS011;16320;53.954;9.506;2022-12-07T20:30:32;14.50;;;7.93;;
29314;SDS011;16320;53.954;9.506;2022-12-07T20:33:37;15.73;;;9.15;;
29314;SDS011;16320;53.954;9.506;2022-12-07T20:36:42;13.52;;;8.20;;
29314;SDS011;16320;53.954;9.506;2022-12-07T20:39:48;22.23;;;8.43;;
29314;SDS011;16320;53.954;9.506;2022-12-07T20:42:52;13.68;;;6.95;;
29314;SDS011;16320;53.954;9.506;2022-12-07T20:45:56;13.88;;;6.05;;
29314;SDS011;16320;53.954;9.506;2022-12-07T20:49:01;11.35;;;5.45;;
29314;SDS011;16320;53.954;9.506;2022-12-07T20:52:07;12.85;;;4.90;;
29314;SDS011;16320;53.954;9.506;2022-12-07T20:55:12;9.80;;;4.72;;
29314;SDS011;16320;53.954;9.506;2022-12-07T20:58:21;14.57;;;4.72;;
29314;SDS011;16320;53.954;9.506;2022-12-07T21:01:34;16.23;;;5.78;;
29314;SDS011;16320;53.954;9.506;2022-12-07T21:04:54;14.85;;;6.18;;
29314;SDS011;16320;53.954;9.506;2022-12-07T21:07:58;18.33;;;6.47;;
29314;SDS011;16320;53.954;9.506;2022-12-07T21:11:06;15.02;;;6.93;;
29314;SDS011;16320;53.954;9.506;2022-12-07T21:14:12;12.80;;;6.00;;
29314;SDS011;16320;53.954;9.506;2022-12-07T21:17:16;11.90;;;6.05;;
29314;SDS011;16320;53.954;9.506;2022-12-07T21:20:21;15.73;;;5.60;;
29314;SDS011;16320;53.954;9.506;2022-12-07T21:23:25;16.35;;;6.60;;
29314;SDS011;16320;53.954;9.506;2022-12-07T21:26:33;17.20;;;6.95;;
29314;SDS011;16320;53.954;9.506;2022-12-07T21:29:38;15.25;;;6.53;;
29314;SDS011;16320;53.954;9.506;2022-12-07T21:32:47;20.15;;;7.80;;
29314;SDS011;16320;53.954;9.506;2022-12-07T21:35:51;26.58;;;8.88;;
29314;SDS011;16320;53.954;9.506;2022-12-07T21:38:56;25.05;;;10.15;;
29314;SDS011;16320;53.954;9.506;2022-12-07T21:42:01;18.25;;;8.50;;
29314;SDS011;16320;53.954;9.506;2022-12-07T21:45:05;16.65;;;9.38;;
29314;SDS011;16320;53.954;9.506;2022-12-07T21:48:10;27.05;;;11.90;;
29314;SDS011;16320;53.954;9.506;2022-12-07T21:51:14;23.73;;;11.70;;
29314;SDS011;16320;53.954;9.506;2022-12-07T21:54:19;21.50;;;12.32;;
29314;SDS011;16320;53.954;9.506;2022-12-07T21:57:30;28.63;;;12.82;;
29314;SDS011;16320;53.954;9.506;2022-12-07T22:00:36;23.30;;;11.45;;
29314;SDS011;16320;53.954;9.506;2022-12-07T22:03:42;22.08;;;12.90;;
29314;SDS011;16320;53.954;9.506;2022-12-07T22:06:54;26.33;;;13.90;;
29314;SDS011;16320;53.954;9.506;2022-12-07T22:10:00;20.17;;;11.90;;
29314;SDS011;16320;53.954;9.506;2022-12-07T22:13:04;21.05;;;13.02;;
29314;SDS011;16320;53.954;9.506;2022-12-07T22:16:09;25.00;;;13.02;;
29314;SDS011;16320;53.954;9.506;2022-12-07T22:19:13;22.95;;;12.60;;
29314;SDS011;16320;53.954;9.506;2022-12-07T22:22:18;23.13;;;12.65;;
29314;SDS011;16320;53.954;9.506;2022-12-07T22:25:23;27.63;;;13.68;;
29314;SDS011;16320;53.954;9.506;2022-12-07T22:28:27;19.23;;;11.77;;
29314;SDS011;16320;53.954;9.506;2022-12-07T22:31:32;23.23;;;12.63;;
29314;SDS011;16320;53.954;9.506;2022-12-07T22:34:36;21.58;;;12.40;;
29314;SDS011;16320;53.954;9.506;2022-12-07T22:37:40;17.08;;;11.07;;
29314;SDS011;16320;53.954;9.506;2022-12-07T22:40:45;25.30;;;11.57;;
29314;SDS011;16320;53.954;9.506;2022-12-07T22:43:50;21.42;;;11.13;;
29314;SDS011;16320;53.954;9.506;2022-12-07T22:46:57;30.30;;;11.85;;
29314;SDS011;16320;53.954;9.506;2022-12-07T22:50:06;19.92;;;11.63;;
29314;SDS011;16320;53.954;9.506;2022-12-07T22:53:14;23.13;;;11.65;;
29314;SDS011;16320;53.954;9.506;2022-12-07T22:56:22;20.00;;;11.48;;
29314;SDS011;16320;53.954;9.506;2022-12-07T22:59:29;21.60;;;11.60;;
29314;SDS011;16320;53.954;9.506;2022-12-07T23:02:34;18.35;;;11.27;;
29314;SDS011;16320;53.954;9.506;2022-12-07T23:05:45;22.45;;;11.18;;
29314;SDS011;16320;53.954;9.506;2022-12-07T23:08:54;22.70;;;10.88;;
29314;SDS011;16320;53.954;9.506;2022-12-07T23:12:13;17.23;;;11.23;;
29314;SDS011;16320;53.954;9.506;2022-12-07T23:15:46;23.15;;;12.38;;
29314;SDS011;16320;53.954;9.506;2022-12-07T23:18:55;26.95;;;12.00;;
29314;SDS011;16320;53.954;9.506;2022-12-07T23:22:06;23.98;;;13.00;;
29314;SDS011;16320;53.954;9.506;2022-12-07T23:25:25;24.40;;;14.27;;
29314;SDS011;16320;53.954;9.506;2022-12-07T23:28:32;26.35;;;14.10;;
29314;SDS011;16320;53.954;9.506;2022-12-07T23:31:45;32.58;;;16.17;;
29314;SDS011;16320;53.954;9.506;2022-12-07T23:38:41;32.50;;;15.77;;
29314;SDS011;16320;53.954;9.506;2022-12-07T23:41:52;31.60;;;16.60;;
29314;SDS011;16320;53.954;9.506;2022-12-07T23:45:38;33.70;;;18.20;;
29314;SDS011;16320;53.954;9.506;2022-12-07T23:48:53;37.13;;;17.60;;
29314;SDS011;16320;53.954;9.506;2022-12-07T23:52:20;34.38;;;17.63;;
29314;SDS011;16320;53.954;9.506;2022-12-07T23:55:56;35.22;;;17.40;;
29314;SDS011;16320;53.954;9.506;2022-12-07T23:59:25;34.00;;;17.43;;
